Time,TemperatureF,DewpointF,PressureIn,WindDirection,WindDirectionDegrees,WindSpeedMPH,WindSpeedGustMPH,Humidity,HourlyPrecipIn,Conditions,Clouds,dailyrainin,SoftwareType,DateUTC
2014-04-25 00:10:00,45.7,22.0,29.84,East,79,0.0,-999.0,39,-99.99,,,0.00,weatherlink.com 1.10,2014-04-25 04:10:00,
2014-04-25 00:25:00,46.1,20.0,29.84,ENE,72,2.0,-999.0,36,-99.99,,,0.00,weatherlink.com 1.10,2014-04-25 04:25:00,
2014-04-25 00:40:00,46.8,20.0,29.83,East,85,3.0,-999.0,34,-99.99,,,0.00,weatherlink.com 1.10,2014-04-25 04:40:00,
2014-04-25 00:55:00,47.0,18.0,29.83,East,90,2.0,-999.0,32,-99.99,,,0.00,weatherlink.com 1.10,2014-04-25 04:55:00,
2014-04-25 01:10:00,47.0,19.0,29.82,ESE,113,0.0,-999.0,33,-99.99,,,0.00,weatherlink.com 1.10,2014-04-25 05:10:00,
2014-04-25 01:25:00,46.5,18.0,29.81,SE,133,1.0,-999.0,32,-99.99,,,0.00,weatherlink.com 1.10,2014-04-25 05:25:00,
2014-04-25 01:40:00,46.4,18.0,29.81,SE,130,0.0,-999.0,32,-99.99,,,0.00,weatherlink.com 1.10,2014-04-25 05:40:00,
2014-04-25 01:55:00,46.2,19.0,29.80,East,99,0.0,-999.0,34,-99.99,,,0.00,weatherlink.com 1.10,2014-04-25 05:55:00,
2014-04-25 02:10:00,46.1,19.0,29.79,ESE,103,0.0,-999.0,34,-99.99,,,0.00,weatherlink.com 1.10,2014-04-25 06:10:00,
2014-04-25 02:25:00,46.2,19.0,29.78,ESE,109,0.0,-999.0,34,-99.99,,,0.00,weatherlink.com 1.10,2014-04-25 06:25:00,
2014-04-25 02:40:00,46.7,19.0,29.77,East,93,3.0,-999.0,33,-99.99,,,0.00,weatherlink.com 1.10,2014-04-25 06:40:00,
2014-04-25 02:55:00,47.0,18.0,29.75,SE,145,5.0,-999.0,31,-99.99,,,0.00,weatherlink.com 1.10,2014-04-25 06:55:00,
2014-04-25 03:10:00,46.8,17.0,29.75,ENE,72,0.0,-999.0,31,-99.99,,,0.00,weatherlink.com 1.10,2014-04-25 07:10:00,
2014-04-25 03:25:00,47.0,18.0,29.75,ENE,75,0.0,-999.0,31,-99.99,,,0.00,weatherlink.com 1.10,2014-04-25 07:25:00,
2014-04-25 03:40:00,47.6,16.0,29.75,SSE,164,9.0,-999.0,28,-99.99,,,0.00,weatherlink.com 1.10,2014-04-25 07:40:00,
2014-04-25 03:55:00,48.0,16.0,29.75,ESE,104,0.0,-999.0,28,-99.99,,,0.00,weatherlink.com 1.10,2014-04-25 07:55:00,
2014-04-25 04:10:00,47.7,17.0,29.74,SE,141,0.0,-999.0,29,-99.99,,,0.00,weatherlink.com 1.10,2014-04-25 08:10:00,
2014-04-25 04:25:00,47.6,17.0,29.73,ESE,119,0.0,-999.0,29,-99.99,,,0.00,weatherlink.com 1.10,2014-04-25 08:25:00,
2014-04-25 04:40:00,47.3,17.0,29.73,East,88,0.0,-999.0,30,-99.99,,,0.00,weatherlink.com 1.10,2014-04-25 08:40:00,
2014-04-25 04:55:00,47.4,16.0,29.72,ESE,123,6.0,-999.0,28,-99.99,,,0.00,weatherlink.com 1.10,2014-04-25 08:55:00,
2014-04-25 05:10:00,47.6,17.0,29.71,SE,128,0.0,-999.0,29,-99.99,,,0.00,weatherlink.com 1.10,2014-04-25 09:10:00,
2014-04-25 05:25:00,47.6,16.0,29.72,South,185,0.0,-999.0,28,-99.99,,,0.00,weatherlink.com 1.10,2014-04-25 09:25:00,